createdAt,value
2018-08-12T00:01:03.415Z,14.95
2018-08-12T00:03:35.987Z,14.94
2018-08-12T00:06:08.363Z,14.83
2018-08-12T00:08:41.472Z,14.85
2018-08-12T00:11:14.859Z,14.67
2018-08-12T00:13:46.719Z,14.84
2018-08-12T00:16:17.101Z,14.98
2018-08-12T00:18:47.879Z,14.92
2018-08-12T00:21:20.704Z,14.97
2018-08-12T00:23:51.131Z,14.94
2018-08-12T00:26:21.410Z,15.00
2018-08-12T00:28:56.282Z,15.08
2018-08-12T00:31:27.873Z,15.05
2018-08-12T00:33:58.407Z,15.09
2018-08-12T00:36:52.795Z,15.00
2018-08-12T00:39:23.225Z,15.05
2018-08-12T00:41:54.004Z,15.07
2018-08-12T00:44:24.280Z,15.17
2018-08-12T00:46:57.480Z,14.96
2018-08-12T00:49:29.240Z,15.08
2018-08-12T00:51:59.572Z,15.07
2018-08-12T00:54:39.000Z,15.15
2018-08-12T00:57:12.603Z,15.11
2018-08-12T00:59:46.234Z,15.16
2018-08-12T01:02:21.848Z,15.26
2018-08-12T01:04:53.307Z,15.38
2018-08-12T01:07:28.118Z,15.24
2018-08-12T01:09:59.105Z,15.34
2018-08-12T01:12:30.009Z,15.39
2018-08-12T01:15:01.527Z,15.26
2018-08-12T01:17:34.471Z,15.20
2018-08-12T01:22:52.499Z,15.23
2018-08-12T01:25:27.550Z,15.12
2018-08-12T01:27:59.047Z,15.31
2018-08-12T01:30:30.579Z,15.25
2018-08-12T01:33:03.118Z,15.26
2018-08-12T01:35:34.458Z,15.35
2018-08-12T01:38:09.297Z,15.34
2018-08-12T01:40:43.710Z,15.33
2018-08-12T01:43:15.190Z,15.25
2018-08-12T01:45:46.855Z,15.23
2018-08-12T01:48:17.890Z,15.14
2018-08-12T01:50:50.985Z,15.36
2018-08-12T01:53:23.262Z,15.40
2018-08-12T01:55:57.166Z,15.36
2018-08-12T01:58:29.222Z,15.35
2018-08-12T02:01:02.638Z,15.42
2018-08-12T02:03:34.853Z,15.29
2018-08-12T02:06:05.944Z,15.44
2018-08-12T02:08:36.618Z,15.36
2018-08-12T02:11:08.376Z,15.36
2018-08-12T02:13:40.768Z,15.29
2018-08-12T02:16:15.577Z,15.24
2018-08-12T02:18:48.870Z,15.17
2018-08-12T02:21:20.855Z,15.26
2018-08-12T02:23:52.896Z,15.20
2018-08-12T02:26:24.250Z,14.96
2018-08-12T02:28:58.468Z,14.96
2018-08-12T02:31:29.696Z,14.92
2018-08-12T02:34:01.498Z,14.90
2018-08-12T02:36:31.812Z,14.95
2018-08-12T02:39:02.714Z,14.99
2018-08-12T02:41:34.104Z,14.96
2018-08-12T02:44:10.100Z,14.87
2018-08-12T02:46:43.911Z,14.96
2018-08-12T02:49:17.364Z,14.75
2018-08-12T02:51:50.938Z,14.98
2018-08-12T02:54:23.398Z,15.04
2018-08-12T02:56:56.058Z,14.98
2018-08-12T02:59:27.358Z,14.97
2018-08-12T03:02:03.644Z,14.92
2018-08-12T03:04:33.742Z,14.98
2018-08-12T03:07:04.238Z,14.95
2018-08-12T03:09:36.635Z,14.83
2018-08-12T03:12:10.771Z,14.91
2018-08-12T03:14:45.235Z,15.00
2018-08-12T03:17:18.966Z,14.84
2018-08-12T03:19:52.786Z,14.81
2018-08-12T03:22:24.913Z,14.82
2018-08-12T03:24:58.544Z,15.05
2018-08-12T03:27:29.603Z,14.99
2018-08-12T03:30:01.066Z,14.95
2018-08-12T03:32:31.430Z,14.82
2018-08-12T03:35:02.062Z,15.03
2018-08-12T03:37:35.356Z,15.18
2018-08-12T03:40:09.832Z,15.00
2018-08-12T03:42:43.990Z,14.98
2018-08-12T03:45:16.872Z,14.89
2018-08-12T03:47:49.604Z,14.96
2018-08-12T03:50:22.155Z,14.87
2018-08-12T03:52:56.548Z,14.91
2018-08-12T03:55:29.504Z,14.99
2018-08-12T03:58:00.852Z,14.81
2018-08-12T04:00:32.360Z,15.03
2018-08-12T04:03:03.605Z,14.83
2018-08-12T04:05:36.871Z,14.87
2018-08-12T04:08:10.470Z,14.80
2018-08-12T04:10:43.586Z,14.79
2018-08-12T04:13:16.858Z,14.47
2018-08-12T04:15:48.970Z,14.78
2018-08-12T04:18:21.922Z,14.60
2018-08-12T04:20:56.141Z,14.69
2018-08-12T04:23:29.640Z,14.69
2018-08-12T04:26:03.645Z,14.86
2018-08-12T04:28:35.726Z,14.90
2018-08-12T04:31:08.267Z,14.69
2018-08-12T04:33:38.415Z,14.77
2018-08-12T04:36:08.971Z,14.76
2018-08-12T04:38:41.382Z,14.89
2018-08-12T04:41:11.820Z,14.76
2018-08-12T04:43:45.359Z,14.79
2018-08-12T04:46:18.146Z,14.84
2018-08-12T04:48:49.848Z,14.71
2018-08-12T04:51:22.729Z,14.92
2018-08-12T04:53:54.039Z,15.06
2018-08-12T04:56:26.354Z,14.94
2018-08-12T04:59:00.684Z,14.95
2018-08-12T05:01:31.007Z,15.18
2018-08-12T05:04:04.299Z,15.03
2018-08-12T05:06:37.331Z,15.09
2018-08-12T05:09:15.125Z,15.14
2018-08-12T05:11:45.407Z,15.17
2018-08-12T05:14:16.449Z,15.11
2018-08-12T05:16:52.846Z,15.12
2018-08-12T05:19:26.210Z,15.07
2018-08-12T05:21:58.451Z,15.16
2018-08-12T05:24:28.910Z,15.13
2018-08-12T05:26:59.549Z,15.26
2018-08-12T05:29:30.401Z,15.34
2018-08-12T05:32:02.145Z,15.31
2018-08-12T05:34:33.693Z,15.30
2018-08-12T05:37:04.432Z,15.34
2018-08-12T05:39:35.008Z,15.36
2018-08-12T05:42:06.791Z,15.34
2018-08-12T05:44:36.994Z,15.44
2018-08-12T05:47:07.653Z,15.40
2018-08-12T05:49:39.317Z,15.42
2018-08-12T05:52:13.955Z,15.63
2018-08-12T05:54:47.929Z,15.48
2018-08-12T05:57:20.833Z,15.33
2018-08-12T05:59:51.649Z,15.41
2018-08-12T06:02:22.103Z,15.43
2018-08-12T06:04:54.054Z,15.17
2018-08-12T06:07:26.764Z,15.37
2018-08-12T06:09:57.025Z,15.44
2018-08-12T06:12:27.177Z,15.49
2018-08-12T06:15:01.696Z,15.36
2018-08-12T06:17:34.209Z,15.32
2018-08-12T06:20:08.648Z,15.46
2018-08-12T06:22:40.518Z,15.33
2018-08-12T06:25:14.370Z,15.50
2018-08-12T06:27:48.996Z,15.59
2018-08-12T06:30:21.783Z,15.62
2018-08-12T06:32:54.762Z,15.60
2018-08-12T06:37:59.332Z,15.92
2018-08-12T06:40:29.660Z,15.76
2018-08-12T06:43:03.240Z,15.87
2018-08-12T06:45:37.302Z,15.97
2018-08-12T06:48:11.020Z,15.88
2018-08-12T06:50:41.407Z,15.97
2018-08-12T06:53:24.300Z,15.93
2018-08-12T06:55:56.763Z,16.02
2018-08-12T06:58:29.491Z,16.04
2018-08-12T07:01:00.524Z,16.18
2018-08-12T07:03:31.204Z,16.14
2018-08-12T07:06:03.286Z,16.24
2018-08-12T07:08:36.867Z,16.45
2018-08-12T07:11:10.596Z,16.67
2018-08-12T07:13:41.219Z,16.71
2018-08-12T07:16:12.909Z,17.03
2018-08-12T07:18:43.732Z,17.25
2018-08-12T07:21:15.540Z,17.29
2018-08-12T07:23:46.764Z,17.33
2018-08-12T07:26:17.393Z,17.57
2018-08-12T07:28:54.298Z,17.56
2018-08-12T07:31:27.734Z,18.22
2018-08-12T07:33:58.131Z,18.25
2018-08-12T07:36:28.567Z,18.44
2018-08-12T07:38:59.197Z,18.01
2018-08-12T07:41:31.345Z,17.86
2018-08-12T07:44:03.666Z,17.83
2018-08-12T07:46:36.031Z,18.10
2018-08-12T07:49:08.873Z,17.81
2018-08-12T07:51:39.598Z,17.63
2018-08-12T07:54:10.772Z,17.86
2018-08-12T07:56:44.448Z,18.10
2018-08-12T07:59:15.487Z,18.31
2018-08-12T08:01:46.782Z,18.37
2018-08-12T08:04:18.959Z,18.30
2018-08-12T08:06:49.742Z,18.72
2018-08-12T08:09:20.626Z,18.75
2018-08-12T08:11:51.918Z,18.80
2018-08-12T08:14:26.895Z,18.41
2018-08-12T08:16:57.435Z,18.21
2018-08-12T08:19:27.956Z,18.26
2018-08-12T08:21:59.117Z,18.17
2018-08-12T08:24:30.906Z,17.97
2018-08-12T08:27:04.507Z,18.17
2018-08-12T08:29:41.288Z,18.30
2018-08-12T08:32:15.415Z,18.49
2018-08-12T08:34:45.728Z,18.54
2018-08-12T08:37:18.443Z,18.61
2018-08-12T08:39:49.042Z,18.78
2018-08-12T08:42:19.103Z,19.00
2018-08-12T08:44:50.059Z,18.70
2018-08-12T08:47:20.317Z,19.09
2018-08-12T08:49:52.994Z,19.05
2018-08-12T08:52:23.308Z,19.62
2018-08-12T08:54:56.395Z,19.46
2018-08-12T08:57:29.483Z,19.38
2018-08-12T09:00:02.598Z,19.28
2018-08-12T09:02:36.231Z,19.48
2018-08-12T09:05:10.590Z,19.27
2018-08-12T09:07:41.858Z,19.85
2018-08-12T09:10:14.349Z,19.89
2018-08-12T09:12:48.278Z,19.78
2018-08-12T09:15:21.660Z,20.36
2018-08-12T09:17:52.296Z,19.87
2018-08-12T09:20:24.969Z,20.32
2018-08-12T09:22:56.024Z,20.45
2018-08-12T09:25:26.397Z,20.56
2018-08-12T09:27:57.482Z,20.46
2018-08-12T09:30:27.864Z,21.09
2018-08-12T09:32:58.419Z,21.33
2018-08-12T09:35:30.552Z,20.95
2018-08-12T09:38:03.237Z,21.05
2018-08-12T09:40:38.383Z,21.09
2018-08-12T09:43:12.944Z,21.48
2018-08-12T09:45:44.258Z,21.82
2018-08-12T09:48:18.862Z,21.62
2018-08-12T09:50:50.037Z,20.93
2018-08-12T09:53:23.759Z,20.96
2018-08-12T09:55:56.568Z,20.79
2018-08-12T09:58:29.693Z,21.03
2018-08-12T10:01:00.420Z,20.87
2018-08-12T10:03:32.182Z,20.89
2018-08-12T10:06:02.752Z,21.03
2018-08-12T10:08:33.131Z,21.19
2018-08-12T10:11:04.827Z,20.85
2018-08-12T10:13:35.785Z,20.57
2018-08-12T10:16:09.778Z,21.04
2018-08-12T10:18:40.609Z,20.96
2018-08-12T10:21:11.802Z,20.86
2018-08-12T10:23:44.025Z,20.91
2018-08-12T10:26:15.789Z,21.45
2018-08-12T10:28:46.309Z,21.36
2018-08-12T10:31:17.623Z,21.49
2018-08-12T10:33:48.608Z,21.30
2018-08-12T10:36:23.187Z,20.96
2018-08-12T10:38:55.705Z,21.42
2018-08-12T10:44:08.733Z,21.07
2018-08-12T10:46:41.011Z,20.90
2018-08-12T10:49:15.438Z,21.15
2018-08-12T10:51:47.693Z,20.96
2018-08-12T10:54:19.812Z,21.28
2018-08-12T10:56:52.993Z,21.23
2018-08-12T10:59:28.316Z,21.21
2018-08-12T11:02:01.070Z,21.43
2018-08-12T11:04:31.983Z,21.33
2018-08-12T11:07:03.127Z,21.34
2018-08-12T11:09:34.852Z,21.33
2018-08-12T11:12:08.694Z,21.58
2018-08-12T11:17:23.035Z,21.00
2018-08-12T11:19:53.362Z,21.01
2018-08-12T11:22:23.721Z,20.94
2018-08-12T11:24:57.223Z,21.28
2018-08-12T11:27:32.048Z,20.73
2018-08-12T11:30:03.419Z,20.74
2018-08-12T11:32:33.748Z,20.58
2018-08-12T11:35:05.782Z,20.52
2018-08-12T11:37:38.362Z,20.54
2018-08-12T11:40:18.596Z,20.86
2018-08-12T11:42:49.420Z,21.01
2018-08-12T11:45:22.044Z,20.68
2018-08-12T11:47:56.775Z,20.79
2018-08-12T11:53:21.901Z,21.09
2018-08-12T11:55:53.221Z,21.26
2018-08-12T11:58:23.608Z,21.28
2018-08-12T12:00:54.137Z,20.96
2018-08-12T12:03:24.608Z,20.67
2018-08-12T12:05:56.737Z,20.54
2018-08-12T12:08:27.713Z,20.40
2018-08-12T12:10:58.768Z,20.50
2018-08-12T12:13:29.190Z,20.42
2018-08-12T12:16:03.090Z,20.48
2018-08-12T12:18:42.687Z,20.39
2018-08-12T12:21:14.960Z,19.96
2018-08-12T12:23:46.542Z,20.19
2018-08-12T12:26:18.295Z,20.03
2018-08-12T12:28:49.188Z,19.68
2018-08-12T12:31:21.678Z,19.62
2018-08-12T12:33:53.160Z,19.56
2018-08-12T12:36:24.731Z,19.67
2018-08-12T12:38:56.597Z,19.62
2018-08-12T12:41:28.823Z,19.84
2018-08-12T12:44:01.749Z,19.78
2018-08-12T12:46:35.580Z,19.74
2018-08-12T12:49:06.316Z,19.89
2018-08-12T12:51:38.875Z,19.79
2018-08-12T12:54:09.289Z,19.98
2018-08-12T12:56:39.534Z,19.42
2018-08-12T12:59:10.536Z,19.27
2018-08-12T13:01:41.233Z,19.32
2018-08-12T13:04:14.770Z,19.55
2018-08-12T13:06:45.742Z,19.39
2018-08-12T13:11:49.891Z,20.03
2018-08-12T13:14:20.761Z,19.88
2018-08-12T13:16:51.537Z,19.93
2018-08-12T13:19:22.484Z,19.92
2018-08-12T13:21:57.104Z,19.94
2018-08-12T13:24:27.753Z,19.50
2018-08-12T13:26:58.517Z,19.39
2018-08-12T13:29:30.512Z,19.75
2018-08-12T13:32:03.880Z,19.69
2018-08-12T13:34:35.116Z,19.55
2018-08-12T13:37:08.622Z,19.78
2018-08-12T13:39:44.899Z,19.70
2018-08-12T13:42:16.496Z,19.79
2018-08-12T13:44:50.754Z,19.81
2018-08-12T13:47:26.260Z,19.64
2018-08-12T13:49:57.239Z,19.92
2018-08-12T13:52:28.352Z,19.78
2018-08-12T13:55:00.149Z,19.72
2018-08-12T13:57:30.915Z,19.78
2018-08-12T14:00:05.643Z,19.67
2018-08-12T14:02:36.271Z,19.69
2018-08-12T14:05:08.555Z,19.77
2018-08-12T14:07:39.516Z,19.65
2018-08-12T14:10:11.901Z,19.85
2018-08-12T14:12:47.736Z,19.44
2018-08-12T14:15:21.972Z,19.37
2018-08-12T14:17:57.134Z,19.04
2018-08-12T14:20:29.078Z,18.89
2018-08-12T14:23:01.363Z,18.77
2018-08-12T14:25:32.784Z,18.59
2018-08-12T14:28:03.525Z,18.66
2018-08-12T14:30:34.003Z,18.41
2018-08-12T14:33:06.115Z,18.44
2018-08-12T14:35:36.743Z,18.56
2018-08-12T14:38:08.711Z,18.79
2018-08-12T14:40:39.287Z,18.87
2018-08-12T14:43:09.775Z,19.08
2018-08-12T14:45:40.039Z,19.14
2018-08-12T14:48:11.341Z,19.02
2018-08-12T14:50:45.989Z,19.21
2018-08-12T14:53:16.544Z,19.33
2018-08-12T14:55:47.423Z,19.43
2018-08-12T14:58:18.099Z,19.21
2018-08-12T15:00:48.516Z,19.23
2018-08-12T15:03:25.413Z,19.36
2018-08-12T15:05:58.546Z,19.47
2018-08-12T15:08:29.278Z,19.59
2018-08-12T15:10:59.977Z,19.65
2018-08-12T15:13:30.365Z,19.74
2018-08-12T15:16:02.915Z,19.85
2018-08-12T15:18:36.441Z,19.74
2018-08-12T15:21:08.069Z,19.95
2018-08-12T15:26:26.030Z,19.87
2018-08-12T15:28:58.197Z,19.81
2018-08-12T15:31:28.734Z,19.81
2018-08-12T15:36:46.196Z,20.14
2018-08-12T15:39:18.890Z,20.07
2018-08-12T15:41:49.934Z,20.02
2018-08-12T15:44:21.635Z,19.91
2018-08-12T15:49:50.231Z,20.12
2018-08-12T15:52:23.215Z,20.12
2018-08-12T15:54:54.724Z,20.18
2018-08-12T15:57:29.085Z,20.26
2018-08-12T16:00:02.247Z,20.35
2018-08-12T16:02:36.750Z,20.48
2018-08-12T16:05:10.403Z,20.60
2018-08-12T16:07:43.785Z,20.72
2018-08-12T16:10:20.997Z,20.83
2018-08-12T16:12:53.664Z,20.85
2018-08-12T16:15:24.501Z,20.78
2018-08-12T16:17:54.955Z,20.82
2018-08-12T16:20:25.289Z,20.87
2018-08-12T16:22:55.992Z,20.74
2018-08-12T16:25:29.026Z,20.77
2018-08-12T16:28:00.055Z,20.77
2018-08-12T16:30:33.063Z,20.78
2018-08-12T16:33:03.577Z,20.80
2018-08-12T16:35:36.009Z,20.75
2018-08-12T16:38:06.898Z,20.91
2018-08-12T16:40:38.182Z,20.86
2018-08-12T16:43:08.655Z,20.94
2018-08-12T16:45:39.503Z,20.80
2018-08-12T16:48:10.115Z,20.80
2018-08-12T16:50:43.193Z,20.95
2018-08-12T16:53:14.116Z,20.87
2018-08-12T16:55:44.666Z,20.94
2018-08-12T16:58:17.172Z,20.93
2018-08-12T17:00:49.988Z,20.96
2018-08-12T17:03:20.564Z,20.94
2018-08-12T17:05:53.141Z,20.99
2018-08-12T17:08:23.562Z,21.06
2018-08-12T17:10:56.354Z,21.15
2018-08-12T17:13:28.677Z,21.12
2018-08-12T17:16:08.568Z,21.00
2018-08-12T17:18:39.447Z,20.94
2018-08-12T17:21:12.840Z,20.92
2018-08-12T17:23:43.359Z,20.98
2018-08-12T17:26:13.910Z,21.02
2018-08-12T17:28:44.556Z,21.02
2018-08-12T17:31:23.419Z,21.01
2018-08-12T17:33:54.979Z,21.00
2018-08-12T17:36:27.110Z,21.02
2018-08-12T17:38:57.599Z,21.04
2018-08-12T17:41:34.853Z,21.15
2018-08-12T17:44:07.773Z,21.10
2018-08-12T17:46:41.755Z,21.01
2018-08-12T17:49:13.867Z,21.03
2018-08-12T17:51:45.093Z,21.03
2018-08-12T17:54:19.531Z,21.02
2018-08-12T17:56:50.756Z,21.06
2018-08-12T17:59:23.951Z,21.01
2018-08-12T18:01:54.444Z,21.09
2018-08-12T18:04:25.677Z,21.15
2018-08-12T18:06:58.263Z,21.08
2018-08-12T18:09:29.282Z,21.03
2018-08-12T18:12:00.129Z,21.04
2018-08-12T18:14:31.311Z,20.97
2018-08-12T18:17:03.382Z,21.05
2018-08-12T18:19:35.414Z,20.88
2018-08-12T18:22:13.675Z,20.94
2018-08-12T18:24:45.567Z,20.81
2018-08-12T18:27:16.538Z,20.85
2018-08-12T18:29:47.358Z,20.84
2018-08-12T18:32:19.984Z,20.76
2018-08-12T18:34:54.615Z,20.77
2018-08-12T18:37:27.670Z,20.74
2018-08-12T18:39:59.567Z,20.74
2018-08-12T18:42:30.826Z,20.58
2018-08-12T18:45:03.472Z,20.56
2018-08-12T18:47:35.830Z,20.51
2018-08-12T18:50:12.349Z,20.31
2018-08-12T18:52:44.823Z,20.27
2018-08-12T18:55:15.458Z,20.21
2018-08-12T18:57:46.637Z,20.11
2018-08-12T19:00:17.687Z,20.07
2018-08-12T19:02:52.261Z,19.96
2018-08-12T19:05:22.741Z,19.93
2018-08-12T19:07:56.776Z,19.86
2018-08-12T19:10:27.434Z,19.76
2018-08-12T19:12:59.703Z,19.76
2018-08-12T19:15:31.882Z,19.76
2018-08-12T19:18:02.523Z,19.66
2018-08-12T19:20:34.786Z,19.55
2018-08-12T19:23:06.384Z,19.56
2018-08-12T19:25:38.297Z,19.54
2018-08-12T19:28:11.910Z,19.47
2018-08-12T19:30:43.500Z,19.53
2018-08-12T19:33:16.177Z,19.51
2018-08-12T19:35:47.131Z,19.53
2018-08-12T19:38:19.023Z,19.54
2018-08-12T19:40:50.589Z,19.64
2018-08-12T19:43:23.624Z,19.60
2018-08-12T19:45:54.660Z,19.65
2018-08-12T19:48:36.828Z,19.74
2018-08-12T19:51:14.287Z,19.73
2018-08-12T19:53:51.585Z,19.77
2018-08-12T19:56:28.577Z,19.77
2018-08-12T19:59:04.612Z,19.79
2018-08-12T20:01:37.829Z,19.80
2018-08-12T20:06:56.116Z,19.67
2018-08-12T20:09:31.269Z,19.73
2018-08-12T20:12:15.813Z,19.73
2018-08-12T20:14:51.355Z,19.72
2018-08-12T20:17:28.808Z,19.53
2018-08-12T20:23:00.886Z,19.62
2018-08-12T20:25:53.589Z,19.58
2018-08-12T20:28:27.803Z,19.48
2018-08-12T20:31:00.412Z,19.57
2018-08-12T20:33:34.450Z,19.53
2018-08-12T20:41:48.902Z,19.37
2018-08-12T20:44:21.413Z,19.43
2018-08-12T20:46:53.040Z,19.40
2018-08-12T20:49:29.040Z,19.36
2018-08-12T20:52:02.518Z,19.45
2018-08-12T20:54:33.278Z,19.44
2018-08-12T20:57:05.336Z,19.49
2018-08-12T20:59:38.737Z,19.39
2018-08-12T21:08:15.712Z,19.49
2018-08-12T21:10:46.604Z,19.51
2018-08-12T21:13:21.967Z,19.49
2018-08-12T21:18:40.761Z,19.43
2018-08-12T21:21:18.265Z,19.43
2018-08-12T21:23:52.366Z,19.41
2018-08-12T21:29:19.943Z,19.44
2018-08-12T21:34:32.658Z,19.51
2018-08-12T21:37:09.261Z,19.52
2018-08-12T21:39:40.713Z,19.54
2018-08-12T21:42:11.569Z,19.61
2018-08-12T21:44:43.705Z,19.70
2018-08-12T21:47:14.700Z,19.66
2018-08-12T21:49:47.323Z,19.62
2018-08-12T21:52:24.024Z,19.62
2018-08-12T21:55:07.459Z,19.69
2018-08-12T21:57:44.653Z,19.77
2018-08-12T22:00:18.921Z,19.87
2018-08-12T22:02:56.309Z,19.86
2018-08-12T22:05:30.305Z,19.68
2018-08-12T22:11:17.592Z,19.45
2018-08-12T22:17:03.257Z,19.31
2018-08-12T22:32:37.306Z,19.19
2018-08-12T22:38:40.857Z,19.11
2018-08-12T23:11:15.335Z,19.05
2018-08-12T23:19:42.453Z,19.12
2018-08-12T23:22:23.045Z,19.22
2018-08-12T23:25:18.584Z,19.23
2018-08-12T23:27:51.098Z,18.99
2018-08-12T23:30:30.143Z,18.87
2018-08-12T23:33:02.204Z,18.82
2018-08-12T23:38:38.594Z,18.81
2018-08-12T23:44:17.337Z,18.77
2018-08-12T23:47:07.320Z,18.76
